createdAt,value
2022-07-29T00:01:37.347Z,95390.97
2022-07-29T00:04:40.397Z,95389.75
2022-07-29T00:07:42.094Z,95389.91
2022-07-29T00:10:43.808Z,95387.75
2022-07-29T00:13:50.610Z,95387.16
2022-07-29T00:16:52.789Z,95384.22
2022-07-29T00:19:55.862Z,95390.84
2022-07-29T00:22:57.771Z,95386.00
2022-07-29T00:25:59.547Z,95385.44
2022-07-29T00:29:32.642Z,95386.09
2022-07-29T00:32:23.259Z,95380.72
2022-07-29T00:35:26.514Z,95381.97
2022-07-29T00:38:28.173Z,95380.13
2022-07-29T00:41:29.856Z,95376.75
2022-07-29T00:44:37.395Z,95387.16
2022-07-29T00:47:39.141Z,95384.88
2022-07-29T00:50:42.232Z,95381.50
2022-07-29T00:53:43.932Z,95380.59
2022-07-29T00:56:45.684Z,95383.63
2022-07-29T00:59:47.420Z,95382.25
2022-07-29T01:02:49.210Z,95381.34
2022-07-29T01:05:53.102Z,95385.94
2022-07-29T01:08:55.044Z,95383.50
2022-07-29T01:11:56.857Z,95389.28
2022-07-29T01:14:59.383Z,95388.38
2022-07-29T01:18:04.866Z,95392.81
2022-07-29T01:21:22.791Z,95388.34
2022-07-29T01:24:33.813Z,95381.97
2022-07-29T01:27:40.451Z,95382.41
2022-07-29T01:30:46.352Z,95377.84
2022-07-29T01:33:51.422Z,95382.25
2022-07-29T01:36:57.669Z,95383.19
2022-07-29T01:40:00.473Z,95376.00
2022-07-29T01:43:07.077Z,95379.22
2022-07-29T01:46:12.756Z,95372.94
2022-07-29T01:49:16.257Z,95373.91
2022-07-29T01:52:21.138Z,95371.56
2022-07-29T01:55:25.465Z,95371.88
2022-07-29T01:58:28.783Z,95364.38
2022-07-29T02:01:33.571Z,95366.06
2022-07-29T02:04:36.692Z,95366.22
2022-07-29T02:07:39.253Z,95370.81
2022-07-29T02:10:41.657Z,95366.53
2022-07-29T02:13:44.810Z,95360.72
2022-07-29T02:16:48.388Z,95360.41
2022-07-29T02:19:50.635Z,95356.75
2022-07-29T02:22:53.135Z,95360.72
2022-07-29T02:25:56.347Z,95359.19
2022-07-29T02:28:58.516Z,95350.50
2022-07-29T02:32:01.862Z,95349.13
2022-07-29T02:35:04.031Z,95348.34
2022-07-29T02:38:05.968Z,95334.00
2022-07-29T02:41:09.933Z,95333.38
2022-07-29T02:44:13.155Z,95321.34
2022-07-29T02:47:19.720Z,95335.97
2022-07-29T02:50:25.418Z,95332.47
2022-07-29T02:53:27.895Z,95331.72
2022-07-29T02:56:33.921Z,95326.06
2022-07-29T02:59:37.607Z,95325.31
2022-07-29T03:02:41.673Z,95327.59
2022-07-29T03:05:43.372Z,95333.88
2022-07-29T03:08:46.129Z,95329.75
2022-07-29T03:11:50.192Z,95326.38
2022-07-29T03:14:53.363Z,95330.03
2022-07-29T03:17:56.765Z,95318.44
2022-07-29T03:20:58.532Z,95326.84
2022-07-29T03:24:00.170Z,95328.06
2022-07-29T03:27:02.302Z,95324.69
2022-07-29T03:30:04.403Z,95329.59
2022-07-29T03:33:13.695Z,95321.03
2022-07-29T03:36:15.472Z,95328.13
2022-07-29T03:39:19.055Z,95333.00
2022-07-29T03:42:22.090Z,95329.44
2022-07-29T03:45:24.793Z,95332.03
2022-07-29T03:48:30.369Z,95336.09
2022-07-29T03:51:33.880Z,95325.50
2022-07-29T03:54:36.240Z,95330.91
2022-07-29T03:57:38.896Z,95339.19
2022-07-29T04:00:41.411Z,95337.50
2022-07-29T04:03:44.588Z,95341.97
2022-07-29T04:06:48.473Z,95330.09
2022-07-29T04:09:50.246Z,95342.38
2022-07-29T04:12:51.995Z,95344.53
2022-07-29T04:15:53.760Z,95348.63
2022-07-29T04:18:57.178Z,95343.41
2022-07-29T04:21:59.202Z,95349.09
2022-07-29T04:25:03.910Z,95339.91
2022-07-29T04:28:06.462Z,95338.28
2022-07-29T04:31:08.199Z,95346.47
2022-07-29T04:34:11.749Z,95357.69
2022-07-29T04:37:13.448Z,95359.13
2022-07-29T04:40:15.582Z,95357.25
2022-07-29T04:43:22.667Z,95358.16
2022-07-29T04:46:25.199Z,95361.50
2022-07-29T04:49:28.391Z,95357.66
2022-07-29T04:52:30.193Z,95361.63
2022-07-29T04:55:31.935Z,95352.59
2022-07-29T04:58:35.022Z,95352.09
2022-07-29T05:01:36.767Z,95353.94
2022-07-29T05:04:39.842Z,95353.47
2022-07-29T05:07:41.545Z,95360.94
2022-07-29T05:10:43.207Z,95360.25
2022-07-29T05:13:45.455Z,95357.84
2022-07-29T05:16:48.064Z,95361.69
2022-07-29T05:19:51.209Z,95362.97
2022-07-29T05:22:52.927Z,95361.88
2022-07-29T05:25:54.601Z,95372.84
2022-07-29T05:28:56.246Z,95366.75
2022-07-29T05:31:57.945Z,95378.09
2022-07-29T05:35:04.080Z,95369.94
2022-07-29T05:38:05.717Z,95374.09
2022-07-29T05:41:09.210Z,95371.06
2022-07-29T05:44:10.860Z,95371.84
2022-07-29T05:47:12.613Z,95369.00
2022-07-29T05:50:15.703Z,95376.16
2022-07-29T05:53:19.597Z,95376.63
2022-07-29T05:56:22.098Z,95379.69
2022-07-29T05:59:28.344Z,95373.44
2022-07-29T06:02:31.885Z,95375.56
2022-07-29T06:05:34.923Z,95373.44
2022-07-29T06:08:37.010Z,95374.50
2022-07-29T06:11:38.672Z,95379.84
2022-07-29T06:14:40.321Z,95372.69
2022-07-29T06:18:00.141Z,95375.31
2022-07-29T06:21:08.249Z,95383.84
2022-07-29T06:24:09.990Z,95378.94
2022-07-29T06:27:11.637Z,95382.34
2022-07-29T06:30:13.690Z,95377.09
2022-07-29T06:33:18.558Z,95382.38
2022-07-29T06:36:21.741Z,95387.53
2022-07-29T06:39:26.694Z,95398.03
2022-07-29T06:42:28.486Z,95397.63
2022-07-29T06:45:30.178Z,95391.69
2022-07-29T06:48:32.216Z,95390.97
2022-07-29T06:51:35.243Z,95401.81
2022-07-29T06:54:36.911Z,95401.38
2022-07-29T06:57:38.566Z,95403.81
2022-07-29T07:00:40.244Z,95401.09
2022-07-29T07:03:41.839Z,95402.41
2022-07-29T07:06:44.850Z,95403.75
2022-07-29T07:09:46.674Z,95404.81
2022-07-29T07:12:48.329Z,95412.03
2022-07-29T07:15:49.985Z,95413.09
2022-07-29T07:18:51.655Z,95409.41
2022-07-29T07:21:54.776Z,95405.28
2022-07-29T07:24:57.440Z,95401.63
2022-07-29T07:27:59.055Z,95405.44
2022-07-29T07:31:00.752Z,95409.28
2022-07-29T07:34:02.429Z,95403.97
2022-07-29T07:37:05.566Z,95405.78
2022-07-29T07:40:08.058Z,95414.19
2022-07-29T07:43:09.706Z,95409.00
2022-07-29T07:46:11.439Z,95412.50
2022-07-29T07:49:13.238Z,95403.03
2022-07-29T07:52:16.758Z,95410.06
2022-07-29T07:55:18.867Z,95413.44
2022-07-29T07:58:20.614Z,95409.75
2022-07-29T08:01:22.408Z,95415.25
2022-07-29T08:04:28.273Z,95414.03
2022-07-29T08:07:32.115Z,95416.34
2022-07-29T08:10:33.776Z,95417.41
2022-07-29T08:13:35.451Z,95423.22
2022-07-29T08:16:37.142Z,95421.53
2022-07-29T08:22:41.631Z,95423.53
2022-07-29T08:25:43.463Z,95421.41
2022-07-29T08:28:46.196Z,95414.03
2022-07-29T08:31:47.989Z,95408.88
2022-07-29T08:34:49.720Z,95412.97
2022-07-29T08:37:53.343Z,95409.75
2022-07-29T08:40:55.205Z,95406.41
2022-07-29T08:43:56.854Z,95406.72
2022-07-29T08:46:58.564Z,95412.81
2022-07-29T08:50:00.231Z,95406.56
2022-07-29T08:53:03.979Z,95408.69
2022-07-29T08:56:06.055Z,95416.91
2022-07-29T08:59:08.895Z,95418.00
2022-07-29T09:02:16.954Z,95418.00
2022-07-29T09:05:18.786Z,95418.41
2022-07-29T09:08:22.354Z,95423.31
2022-07-29T09:11:24.138Z,95415.50
2022-07-29T09:14:25.886Z,95415.81
2022-07-29T09:17:43.644Z,95419.28
2022-07-29T09:20:52.571Z,95419.69
2022-07-29T09:24:03.136Z,95409.59
2022-07-29T09:27:08.558Z,95413.00
2022-07-29T09:30:11.509Z,95417.47
2022-07-29T09:33:13.189Z,95414.94
2022-07-29T09:36:14.832Z,95407.16
2022-07-29T09:39:28.181Z,95413.59
2022-07-29T09:42:30.565Z,95406.81
2022-07-29T09:45:32.921Z,95400.34
2022-07-29T09:48:34.723Z,95399.13
2022-07-29T09:51:38.352Z,95400.53
2022-07-29T09:54:41.765Z,95390.63
2022-07-29T09:57:43.843Z,95388.00
2022-07-29T10:00:46.584Z,95389.38
2022-07-29T10:03:52.208Z,95388.81
2022-07-29T10:07:03.760Z,95380.00
2022-07-29T10:10:08.101Z,95381.13
2022-07-29T10:13:15.355Z,95378.25
2022-07-29T10:16:19.823Z,95383.50
2022-07-29T10:19:21.775Z,95382.34
2022-07-29T10:22:51.505Z,95383.34
2022-07-29T10:25:47.781Z,95376.03
2022-07-29T10:28:49.434Z,95380.09
2022-07-29T10:31:54.218Z,95366.44
2022-07-29T10:35:05.493Z,95378.34
2022-07-29T10:38:28.331Z,95387.47
2022-07-29T10:41:43.991Z,95377.53
2022-07-29T10:44:46.357Z,95383.00
2022-07-29T10:47:49.106Z,95381.41
2022-07-29T10:50:55.092Z,95385.22
2022-07-29T10:53:57.864Z,95383.63
2022-07-29T10:57:11.260Z,95385.16
2022-07-29T11:00:32.365Z,95374.03
2022-07-29T11:03:49.487Z,95378.16
2022-07-29T11:07:07.403Z,95374.63
2022-07-29T11:10:22.149Z,95374.13
2022-07-29T11:13:49.338Z,95370.38
2022-07-29T11:17:01.310Z,95374.81
2022-07-29T11:20:17.805Z,95376.94
2022-07-29T11:23:24.224Z,95378.06
2022-07-29T11:26:26.314Z,95375.34
2022-07-29T11:29:32.476Z,95364.38
2022-07-29T11:32:44.607Z,95373.03
2022-07-29T11:36:08.041Z,95371.78
2022-07-29T11:39:36.219Z,95361.13
2022-07-29T11:42:44.515Z,95363.59
2022-07-29T11:45:47.763Z,95368.41
2022-07-29T11:48:49.810Z,95356.06
2022-07-29T11:51:54.044Z,95353.25
2022-07-29T11:55:00.893Z,95348.31
2022-07-29T11:58:11.948Z,95351.19
2022-07-29T12:01:17.907Z,95351.22
2022-07-29T12:04:19.862Z,95343.06
2022-07-29T12:07:32.669Z,95341.31
2022-07-29T12:10:37.147Z,95345.72
2022-07-29T12:13:39.767Z,95335.84
2022-07-29T12:16:42.883Z,95326.59
2022-07-29T12:19:45.647Z,95329.53
2022-07-29T12:22:47.561Z,95325.31
2022-07-29T12:25:50.038Z,95322.25
2022-07-29T12:28:51.792Z,95325.47
2022-07-29T12:31:57.859Z,95321.63
2022-07-29T12:35:00.320Z,95325.50
2022-07-29T12:38:02.031Z,95320.38
2022-07-29T12:41:04.498Z,95327.84
2022-07-29T12:44:06.557Z,95317.59
2022-07-29T12:47:09.586Z,95315.22
2022-07-29T12:50:12.485Z,95313.88
2022-07-29T12:53:14.746Z,95319.47
2022-07-29T12:59:41.050Z,95319.75
2022-07-29T13:02:44.355Z,95315.81
2022-07-29T13:05:49.462Z,95318.63
2022-07-29T13:08:59.613Z,95312.22
2022-07-29T13:12:06.577Z,95315.91
2022-07-29T13:15:14.933Z,95305.38
2022-07-29T13:18:31.576Z,95307.34
2022-07-29T13:21:33.286Z,95303.88
2022-07-29T13:24:35.365Z,95308.28
2022-07-29T13:27:37.751Z,95302.56
2022-07-29T13:30:44.505Z,95294.78
2022-07-29T13:33:47.867Z,95296.81
2022-07-29T13:36:49.597Z,95293.63
2022-07-29T13:39:53.172Z,95284.78
2022-07-29T13:42:55.197Z,95288.81
2022-07-29T13:45:56.870Z,95273.41
2022-07-29T13:49:00.088Z,95272.66
2022-07-29T13:52:02.019Z,95267.13
2022-07-29T13:55:04.668Z,95266.34
2022-07-29T13:58:06.448Z,95259.03
2022-07-29T14:01:08.225Z,95251.41
2022-07-29T14:04:12.221Z,95242.34
2022-07-29T14:07:16.266Z,95249.16
2022-07-29T14:10:20.201Z,95250.63
2022-07-29T14:13:25.406Z,95245.34
2022-07-29T14:16:28.047Z,95238.31
2022-07-29T14:19:31.436Z,95241.56
2022-07-29T14:22:33.174Z,95242.00
2022-07-29T14:25:39.594Z,95238.91
2022-07-29T14:28:43.874Z,95231.44
2022-07-29T14:31:45.634Z,95233.72
2022-07-29T14:34:48.768Z,95239.69
2022-07-29T14:37:50.452Z,95232.59
2022-07-29T14:40:52.201Z,95237.41
2022-07-29T14:43:54.018Z,95232.72
2022-07-29T14:46:55.694Z,95226.72
2022-07-29T14:49:58.778Z,95233.56
2022-07-29T14:53:00.415Z,95231.13
2022-07-29T14:56:15.263Z,95226.94
2022-07-29T14:59:23.905Z,95226.56
2022-07-29T15:02:40.077Z,95229.06
2022-07-29T15:05:48.622Z,95222.13
2022-07-29T15:08:50.228Z,95228.50
2022-07-29T15:11:51.924Z,95232.50
2022-07-29T15:14:53.547Z,95228.50
2022-07-29T15:17:55.351Z,95215.41
2022-07-29T15:20:58.698Z,95202.75
2022-07-29T15:24:00.337Z,95208.97
2022-07-29T15:27:02.005Z,95207.88
2022-07-29T15:30:04.008Z,95197.84
2022-07-29T15:33:05.776Z,95202.81
2022-07-29T15:36:08.817Z,95204.06
2022-07-29T15:39:10.470Z,95202.34
2022-07-29T15:42:12.210Z,95203.25
2022-07-29T15:45:13.878Z,95203.38
2022-07-29T15:48:15.605Z,95195.88
2022-07-29T15:51:21.395Z,95195.91
2022-07-29T15:54:23.120Z,95193.44
2022-07-29T15:57:25.240Z,95193.53
2022-07-29T16:00:26.882Z,95186.81
2022-07-29T16:03:28.645Z,95195.00
2022-07-29T16:06:31.717Z,95194.09
2022-07-29T16:09:33.605Z,95201.63
2022-07-29T16:12:35.305Z,95197.53
2022-07-29T16:15:36.978Z,95199.44
2022-07-29T16:18:38.624Z,95197.66
2022-07-29T16:21:41.630Z,95182.03
2022-07-29T16:24:43.421Z,95191.63
2022-07-29T16:27:45.056Z,95193.13
2022-07-29T16:30:46.733Z,95192.88
2022-07-29T16:33:54.557Z,95192.59
2022-07-29T16:36:59.239Z,95184.56
2022-07-29T16:40:01.128Z,95175.97
2022-07-29T16:43:02.906Z,95179.22
2022-07-29T16:46:04.615Z,95181.25
2022-07-29T16:49:06.583Z,95180.50
2022-07-29T16:52:09.652Z,95169.66
2022-07-29T16:55:11.347Z,95179.00
2022-07-29T16:58:13.052Z,95178.28
2022-07-29T17:01:14.878Z,95181.06
2022-07-29T17:04:16.633Z,95174.75
2022-07-29T17:07:19.738Z,95178.28
2022-07-29T17:10:21.444Z,95174.22
2022-07-29T17:13:23.117Z,95184.78
2022-07-29T17:16:25.016Z,95178.22
2022-07-29T17:19:26.888Z,95178.75
2022-07-29T17:22:29.934Z,95177.25
2022-07-29T17:25:31.572Z,95183.03
2022-07-29T17:28:33.239Z,95180.47
2022-07-29T17:31:34.938Z,95187.00
2022-07-29T17:34:36.880Z,95187.28
2022-07-29T17:37:39.903Z,95188.56
2022-07-29T17:40:41.582Z,95189.28
2022-07-29T17:43:43.232Z,95185.94
2022-07-29T17:46:44.956Z,95185.22
2022-07-29T17:49:46.648Z,95186.94
2022-07-29T17:52:49.778Z,95182.16
2022-07-29T17:55:51.461Z,95189.63
2022-07-29T17:58:53.128Z,95191.78
2022-07-29T18:01:54.840Z,95200.81
2022-07-29T18:04:56.641Z,95195.72
2022-07-29T18:07:59.644Z,95205.50
2022-07-29T18:11:01.373Z,95203.94
2022-07-29T18:14:02.973Z,95214.06
2022-07-29T18:17:04.605Z,95220.19
2022-07-29T18:20:06.956Z,95227.00
2022-07-29T18:23:10.182Z,95231.78
2022-07-29T18:26:11.775Z,95233.28
2022-07-29T18:29:13.418Z,95231.50
2022-07-29T18:32:15.081Z,95232.53
2022-07-29T18:35:16.775Z,95234.97
2022-07-29T18:38:19.926Z,95243.41
2022-07-29T18:41:21.557Z,95243.50
2022-07-29T18:44:23.241Z,95248.44
2022-07-29T18:47:32.050Z,95251.59
2022-07-29T18:50:34.113Z,95262.00
2022-07-29T18:53:37.322Z,95277.38
2022-07-29T18:56:39.217Z,95271.91
2022-07-29T18:59:40.882Z,95283.56
2022-07-29T19:02:42.703Z,95293.38
2022-07-29T19:05:44.445Z,95294.31
2022-07-29T19:08:47.517Z,95297.06
2022-07-29T19:11:52.990Z,95292.44
2022-07-29T19:14:57.213Z,95318.66
2022-07-29T19:18:01.184Z,95349.84
2022-07-29T19:21:03.144Z,95345.06
2022-07-29T19:24:11.096Z,95384.34
2022-07-29T19:27:15.410Z,95407.94
2022-07-29T19:30:17.092Z,95390.31
2022-07-29T19:33:18.796Z,95404.66
2022-07-29T19:36:20.590Z,95416.59
2022-07-29T19:39:34.904Z,95423.13
2022-07-29T19:42:37.337Z,95439.69
2022-07-29T19:45:39.561Z,95434.53
2022-07-29T19:48:41.287Z,95452.09
2022-07-29T19:51:43.042Z,95434.09
2022-07-29T19:54:46.086Z,95428.31
2022-07-29T19:57:47.993Z,95431.16
2022-07-29T20:00:50.390Z,95434.75
2022-07-29T20:03:52.038Z,95464.63
2022-07-29T20:06:53.656Z,95465.09
2022-07-29T20:09:57.103Z,95471.09
2022-07-29T20:12:58.835Z,95481.25
2022-07-29T20:16:00.660Z,95488.88
2022-07-29T20:19:02.803Z,95499.03
2022-07-29T20:22:04.457Z,95494.97
2022-07-29T20:25:08.122Z,95496.13
2022-07-29T20:28:09.760Z,95497.25
2022-07-29T20:31:11.511Z,95508.22
2022-07-29T20:34:13.197Z,95508.63
2022-07-29T20:37:14.855Z,95516.78
2022-07-29T20:40:17.851Z,95525.44
2022-07-29T20:43:19.574Z,95522.03
2022-07-29T20:46:21.342Z,95523.25
2022-07-29T20:49:23.078Z,95531.25
2022-07-29T20:52:24.812Z,95535.00
2022-07-29T20:55:28.028Z,95539.13
2022-07-29T20:58:29.660Z,95533.31
2022-07-29T21:01:31.411Z,95542.50
2022-07-29T21:04:33.164Z,95537.72
2022-07-29T21:07:34.827Z,95551.06
2022-07-29T21:10:37.832Z,95542.72
2022-07-29T21:13:39.538Z,95540.31
2022-07-29T21:16:41.203Z,95538.78
2022-07-29T21:19:42.939Z,95539.00
2022-07-29T21:22:44.995Z,95539.16
2022-07-29T21:25:48.097Z,95531.44
2022-07-29T21:28:50.141Z,95540.41
2022-07-29T21:31:52.270Z,95530.53
2022-07-29T21:34:53.909Z,95536.13
2022-07-29T21:37:55.684Z,95538.56
2022-07-29T21:40:58.765Z,95535.69
2022-07-29T21:44:01.475Z,95537.22
2022-07-29T21:47:03.522Z,95534.59
2022-07-29T21:50:05.752Z,95528.72
2022-07-29T21:53:07.543Z,95522.81
2022-07-29T21:56:14.891Z,95525.75
2022-07-29T21:59:16.854Z,95527.81
2022-07-29T22:02:18.515Z,95541.72
2022-07-29T22:05:20.401Z,95546.31
2022-07-29T22:08:22.066Z,95549.41
2022-07-29T22:11:25.119Z,95558.47
2022-07-29T22:14:26.787Z,95561.72
2022-07-29T22:17:28.471Z,95572.06
2022-07-29T22:20:30.105Z,95576.69
2022-07-29T22:23:32.008Z,95562.81
2022-07-29T22:26:35.028Z,95548.63
2022-07-29T22:29:36.774Z,95546.38
2022-07-29T22:32:38.595Z,95538.78
2022-07-29T22:35:40.229Z,95532.56
2022-07-29T22:38:41.888Z,95542.53
2022-07-29T22:41:44.965Z,95541.63
2022-07-29T22:44:46.679Z,95537.31
2022-07-29T22:47:48.856Z,95529.03
2022-07-29T22:50:50.529Z,95537.69
2022-07-29T22:53:52.521Z,95534.28
2022-07-29T22:56:55.562Z,95542.25
2022-07-29T22:59:57.219Z,95544.41
2022-07-29T23:02:58.881Z,95545.19
2022-07-29T23:06:00.532Z,95545.25
2022-07-29T23:09:02.343Z,95545.13
2022-07-29T23:12:05.695Z,95542.94
2022-07-29T23:15:07.506Z,95538.16
2022-07-29T23:18:09.504Z,95532.88
2022-07-29T23:21:11.233Z,95545.25
2022-07-29T23:24:12.846Z,95539.31
2022-07-29T23:27:15.898Z,95533.13
2022-07-29T23:30:17.546Z,95534.22
2022-07-29T23:33:19.268Z,95532.22
2022-07-29T23:36:20.883Z,95529.81
2022-07-29T23:39:22.701Z,95527.94
2022-07-29T23:42:25.740Z,95528.41
2022-07-29T23:45:40.034Z,95518.97
2022-07-29T23:48:46.857Z,95513.16
2022-07-29T23:51:48.509Z,95509.13
2022-07-29T23:54:50.164Z,95505.19
2022-07-29T23:57:53.138Z,95506.06
